Time;durP1;ratioP1;P1;durP2;ratioP2;P2;SDS_P1;SDS_P2;PMS_P1;PMS_P2;Temp;Humidity;BMP_temperature;BMP_pressure;BME280_temperature;BME280_humidity;BME280_pressure;Samples;Min_cycle;Max_cycle;Signal;HPM_P1;HPM_P2
2021/05/22 00:01:38;;;;;;;0.81;0.81;;;;;;;20.08;51.70;99594.86;;;;-51
2021/05/22 00:04:38;;;;;;;1.01;1.00;;;;;;;20.06;51.59;99599.84;;;;-51
2021/05/22 00:07:38;;;;;;;0.72;0.72;;;;;;;20.06;51.60;99612.20;;;;-51
2021/05/22 00:10:38;;;;;;;0.80;0.79;;;;;;;20.04;51.64;99619.13;;;;-52
2021/05/22 00:13:38;;;;;;;0.79;0.79;;;;;;;20.03;51.66;99626.41;;;;-51
2021/05/22 00:16:38;;;;;;;0.87;0.87;;;;;;;20.02;51.65;99622.17;;;;-51
2021/05/22 00:19:39;;;;;;;0.95;0.95;;;;;;;20.01;51.71;99627.22;;;;-52
2021/05/22 00:22:40;;;;;;;0.80;0.80;;;;;;;20.00;51.74;99622.02;;;;-51
2021/05/22 00:25:38;;;;;;;1.57;0.90;;;;;;;19.99;51.69;99619.59;;;;-51
2021/05/22 00:28:38;;;;;;;1.15;0.90;;;;;;;19.97;51.74;99626.77;;;;-51
2021/05/22 00:31:38;;;;;;;1.38;0.91;;;;;;;19.97;51.77;99621.17;;;;-51
2021/05/22 00:34:38;;;;;;;0.89;0.89;;;;;;;19.96;51.72;99610.98;;;;-51
2021/05/22 00:37:39;;;;;;;0.90;0.88;;;;;;;19.95;51.78;99601.09;;;;-51
2021/05/22 00:40:38;;;;;;;0.81;0.81;;;;;;;19.94;51.77;99619.87;;;;-51
2021/05/22 00:43:38;;;;;;;0.83;0.83;;;;;;;19.93;51.72;99619.66;;;;-51
2021/05/22 00:46:39;;;;;;;0.81;0.81;;;;;;;19.92;51.81;99621.36;;;;-51
2021/05/22 00:49:38;;;;;;;0.88;0.87;;;;;;;19.91;51.76;99640.15;;;;-51
2021/05/22 00:52:38;;;;;;;0.80;0.80;;;;;;;19.91;51.80;99640.48;;;;-51
2021/05/22 00:55:39;;;;;;;0.86;0.86;;;;;;;19.89;51.84;99644.95;;;;-52
2021/05/22 00:58:38;;;;;;;0.90;0.90;;;;;;;19.89;51.80;99650.59;;;;-52
2021/05/22 01:01:38;;;;;;;1.87;0.97;;;;;;;19.88;51.79;99656.85;;;;-51
2021/05/22 01:04:38;;;;;;;1.15;0.75;;;;;;;19.87;51.79;99664.91;;;;-51
2021/05/22 01:07:38;;;;;;;0.79;0.79;;;;;;;19.86;51.83;99667.77;;;;-51
2021/05/22 01:10:38;;;;;;;0.88;0.88;;;;;;;19.86;51.91;99654.66;;;;-51
2021/05/22 01:13:38;;;;;;;0.93;0.91;;;;;;;19.85;51.85;99646.95;;;;-51
2021/05/22 01:16:38;;;;;;;1.03;0.88;;;;;;;19.85;51.85;99649.64;;;;-51
2021/05/22 01:19:38;;;;;;;0.78;0.78;;;;;;;19.84;51.86;99638.91;;;;-51
2021/05/22 01:22:38;;;;;;;1.17;1.01;;;;;;;19.82;51.85;99628.45;;;;-52
2021/05/22 01:25:39;;;;;;;0.87;0.87;;;;;;;19.82;51.82;99616.81;;;;-52
2021/05/22 01:28:38;;;;;;;1.47;0.90;;;;;;;19.81;51.87;99612.68;;;;-51
2021/05/22 01:31:38;;;;;;;0.90;0.81;;;;;;;19.80;51.83;99600.51;;;;-54
2021/05/22 01:34:38;;;;;;;0.81;0.81;;;;;;;19.79;51.88;99600.74;;;;-54
2021/05/22 01:37:38;;;;;;;1.05;0.87;;;;;;;19.78;51.89;99598.89;;;;-55
2021/05/22 01:40:38;;;;;;;0.80;0.80;;;;;;;19.78;51.89;99601.25;;;;-54
2021/05/22 01:43:38;;;;;;;1.20;0.83;;;;;;;19.77;51.91;99604.98;;;;-55
2021/05/22 01:46:40;;;;;;;0.71;0.71;;;;;;;19.75;51.87;99603.53;;;;-54
2021/05/22 01:49:38;;;;;;;2.95;1.07;;;;;;;19.75;52.02;99603.53;;;;-54
2021/05/22 01:52:38;;;;;;;2.70;1.01;;;;;;;19.75;51.99;99604.92;;;;-54
2021/05/22 01:55:39;;;;;;;0.95;0.92;;;;;;;19.74;51.88;99604.94;;;;-54
2021/05/22 01:58:38;;;;;;;0.95;0.81;;;;;;;19.74;51.92;99597.80;;;;-54
2021/05/22 02:01:38;;;;;;;2.92;0.98;;;;;;;19.73;51.92;99598.83;;;;-52
2021/05/22 02:04:38;;;;;;;1.02;1.02;;;;;;;19.72;51.88;99587.64;;;;-52
2021/05/22 02:07:38;;;;;;;1.06;0.93;;;;;;;19.71;51.89;99591.45;;;;-52
2021/05/22 02:10:38;;;;;;;0.80;0.80;;;;;;;19.71;51.95;99599.51;;;;-52
2021/05/22 02:13:38;;;;;;;0.85;0.82;;;;;;;19.70;51.90;99598.11;;;;-52
2021/05/22 02:16:38;;;;;;;0.88;0.87;;;;;;;19.69;51.95;99608.52;;;;-52
2021/05/22 02:19:38;;;;;;;0.87;0.86;;;;;;;19.69;51.90;99612.25;;;;-52
2021/05/22 02:22:38;;;;;;;0.90;0.90;;;;;;;19.68;51.94;99608.70;;;;-52
2021/05/22 02:25:38;;;;;;;0.93;0.90;;;;;;;19.67;51.97;99615.70;;;;-52
2021/05/22 02:28:39;;;;;;;0.89;0.89;;;;;;;19.67;51.98;99615.52;;;;-52
2021/05/22 02:31:40;;;;;;;0.82;0.82;;;;;;;19.67;52.02;99625.03;;;;-52
2021/05/22 02:34:38;;;;;;;0.81;0.81;;;;;;;19.66;51.94;99628.22;;;;-52
2021/05/22 02:37:39;;;;;;;1.61;0.88;;;;;;;19.65;52.00;99624.64;;;;-52
2021/05/22 02:40:39;;;;;;;0.95;0.72;;;;;;;19.64;51.93;99621.23;;;;-52
2021/05/22 02:43:38;;;;;;;0.91;0.91;;;;;;;19.63;52.02;99620.77;;;;-52
2021/05/22 02:46:38;;;;;;;0.88;0.88;;;;;;;19.62;51.95;99622.06;;;;-52
2021/05/22 02:49:41;;;;;;;0.88;0.88;;;;;;;19.62;52.03;99626.06;;;;-51
2021/05/22 02:52:38;;;;;;;0.83;0.80;;;;;;;19.61;51.99;99629.56;;;;-52
2021/05/22 02:55:38;;;;;;;0.86;0.84;;;;;;;19.61;51.98;99632.80;;;;-54
2021/05/22 02:58:38;;;;;;;1.55;0.93;;;;;;;19.60;52.02;99626.95;;;;-54
2021/05/22 03:01:38;;;;;;;0.79;0.79;;;;;;;19.59;52.01;99627.87;;;;-51
2021/05/22 03:04:38;;;;;;;0.80;0.80;;;;;;;19.60;51.99;99631.43;;;;-51
2021/05/22 03:07:38;;;;;;;0.89;0.89;;;;;;;19.58;51.99;99632.01;;;;-51
2021/05/22 03:10:38;;;;;;;0.91;0.90;;;;;;;19.58;51.97;99628.76;;;;-51
2021/05/22 03:13:38;;;;;;;0.81;0.81;;;;;;;19.57;51.98;99626.18;;;;-50
2021/05/22 03:16:38;;;;;;;0.90;0.90;;;;;;;19.57;51.97;99629.83;;;;-51
2021/05/22 03:19:38;;;;;;;0.77;0.77;;;;;;;19.56;52.13;99629.59;;;;-52
2021/05/22 03:22:38;;;;;;;0.89;0.85;;;;;;;19.55;52.02;99624.73;;;;-52
2021/05/22 03:25:38;;;;;;;0.97;0.85;;;;;;;19.55;52.00;99632.77;;;;-52
2021/05/22 03:28:39;;;;;;;0.81;0.81;;;;;;;19.55;51.97;99634.89;;;;-52
2021/05/22 03:31:38;;;;;;;0.89;0.85;;;;;;;19.54;52.09;99636.91;;;;-52
2021/05/22 03:34:38;;;;;;;1.03;0.90;;;;;;;19.54;51.96;99636.84;;;;-52
2021/05/22 03:37:38;;;;;;;0.81;0.81;;;;;;;19.52;51.97;99634.56;;;;-52
2021/05/22 03:40:38;;;;;;;0.82;0.79;;;;;;;19.53;52.05;99634.17;;;;-52
2021/05/22 03:43:38;;;;;;;0.89;0.89;;;;;;;19.52;52.11;99640.91;;;;-52
2021/05/22 03:46:38;;;;;;;0.98;0.98;;;;;;;19.52;52.03;99643.11;;;;-52
2021/05/22 03:49:39;;;;;;;0.94;0.89;;;;;;;19.51;51.99;99638.34;;;;-52
2021/05/22 03:52:38;;;;;;;0.86;0.85;;;;;;;19.51;52.03;99646.36;;;;-52
2021/05/22 03:55:38;;;;;;;0.79;0.79;;;;;;;19.50;52.05;99652.45;;;;-53
2021/05/22 03:58:38;;;;;;;0.85;0.85;;;;;;;19.49;52.00;99649.47;;;;-52
2021/05/22 04:01:38;;;;;;;0.99;0.91;;;;;;;19.49;52.04;99650.13;;;;-52
2021/05/22 04:04:38;;;;;;;0.95;0.94;;;;;;;19.49;52.11;99652.17;;;;-50
2021/05/22 04:07:38;;;;;;;0.87;0.87;;;;;;;19.48;52.02;99651.09;;;;-51
2021/05/22 04:10:38;;;;;;;0.92;0.92;;;;;;;19.48;51.98;99650.05;;;;-51
2021/05/22 04:13:38;;;;;;;0.79;0.79;;;;;;;19.47;52.03;99652.00;;;;-52
2021/05/22 04:16:38;;;;;;;0.79;0.79;;;;;;;19.47;51.96;99654.30;;;;-50
2021/05/22 04:19:38;;;;;;;0.87;0.83;;;;;;;19.47;52.07;99659.66;;;;-52
2021/05/22 04:22:38;;;;;;;0.75;0.75;;;;;;;19.46;52.08;99656.98;;;;-52
2021/05/22 04:25:38;;;;;;;0.80;0.80;;;;;;;19.46;52.02;99659.80;;;;-50
2021/05/22 04:28:38;;;;;;;0.79;0.79;;;;;;;19.46;52.03;99663.95;;;;-51
2021/05/22 04:31:38;;;;;;;0.70;0.70;;;;;;;19.45;51.97;99659.91;;;;-50
2021/05/22 04:34:38;;;;;;;0.79;0.79;;;;;;;19.45;51.97;99664.94;;;;-51
2021/05/22 04:37:38;;;;;;;0.90;0.90;;;;;;;19.44;52.02;99661.22;;;;-51
2021/05/22 04:40:38;;;;;;;0.89;0.89;;;;;;;19.44;52.04;99664.38;;;;-50
2021/05/22 04:43:38;;;;;;;0.85;0.85;;;;;;;19.43;52.05;99661.38;;;;-50
2021/05/22 04:46:38;;;;;;;0.84;0.84;;;;;;;19.43;51.96;99665.11;;;;-51
2021/05/22 04:49:38;;;;;;;0.75;0.75;;;;;;;19.42;52.05;99666.98;;;;-51
2021/05/22 04:52:39;;;;;;;0.82;0.82;;;;;;;19.42;51.99;99669.09;;;;-51
2021/05/22 04:55:38;;;;;;;0.83;0.83;;;;;;;19.42;51.99;99669.66;;;;-52
2021/05/22 04:58:38;;;;;;;0.89;0.89;;;;;;;19.42;52.02;99670.40;;;;-52
2021/05/22 05:01:40;;;;;;;0.81;0.81;;;;;;;19.41;52.07;99674.63;;;;-52
2021/05/22 05:04:38;;;;;;;0.90;0.90;;;;;;;19.41;52.00;99679.99;;;;-52
2021/05/22 05:07:38;;;;;;;0.91;0.91;;;;;;;19.41;52.03;99675.45;;;;-52
2021/05/22 05:10:38;;;;;;;1.04;0.91;;;;;;;19.40;51.99;99681.13;;;;-52
2021/05/22 05:13:38;;;;;;;0.76;0.76;;;;;;;19.40;52.00;99673.97;;;;-51
2021/05/22 05:16:38;;;;;;;0.82;0.82;;;;;;;19.39;52.05;99669.44;;;;-52
2021/05/22 05:19:38;;;;;;;0.74;0.74;;;;;;;19.39;52.00;99672.45;;;;-51
2021/05/22 05:22:38;;;;;;;0.76;0.76;;;;;;;19.40;51.98;99675.44;;;;-52
2021/05/22 05:25:38;;;;;;;0.79;0.79;;;;;;;19.40;52.12;99670.40;;;;-52
2021/05/22 05:28:38;;;;;;;0.80;0.80;;;;;;;19.41;51.92;99673.67;;;;-54
2021/05/22 05:31:38;;;;;;;0.79;0.79;;;;;;;19.42;51.94;99672.67;;;;-54
2021/05/22 05:34:38;;;;;;;0.73;0.73;;;;;;;19.43;51.86;99675.28;;;;-54
2021/05/22 05:37:38;;;;;;;0.74;0.74;;;;;;;19.44;51.87;99676.98;;;;-55
2021/05/22 05:40:39;;;;;;;0.70;0.70;;;;;;;19.46;51.98;99676.95;;;;-54
2021/05/22 05:43:38;;;;;;;0.91;0.77;;;;;;;19.47;51.91;99675.81;;;;-54
2021/05/22 05:46:38;;;;;;;0.81;0.81;;;;;;;19.48;51.83;99685.22;;;;-54
2021/05/22 05:49:38;;;;;;;0.81;0.81;;;;;;;19.51;52.00;99680.92;;;;-54
2021/05/22 05:52:38;;;;;;;0.89;0.87;;;;;;;19.53;51.89;99694.47;;;;-54
2021/05/22 05:55:39;;;;;;;0.79;0.79;;;;;;;19.53;51.92;99689.34;;;;-54
2021/05/22 05:58:38;;;;;;;0.77;0.77;;;;;;;19.55;52.00;99686.58;;;;-54
2021/05/22 06:01:38;;;;;;;0.89;0.89;;;;;;;19.56;51.84;99684.69;;;;-54
2021/05/22 06:04:38;;;;;;;0.80;0.80;;;;;;;19.57;51.91;99687.70;;;;-54
2021/05/22 06:07:38;;;;;;;0.88;0.88;;;;;;;19.59;51.86;99691.34;;;;-54
2021/05/22 06:10:38;;;;;;;3.21;0.76;;;;;;;19.59;51.89;99690.45;;;;-54
2021/05/22 06:13:38;;;;;;;0.80;0.78;;;;;;;19.60;51.92;99697.83;;;;-54
2021/05/22 06:16:38;;;;;;;0.67;0.67;;;;;;;19.61;51.82;99694.73;;;;-54
2021/05/22 06:19:38;;;;;;;0.85;0.85;;;;;;;19.62;51.89;99698.55;;;;-54
2021/05/22 06:22:38;;;;;;;0.83;0.83;;;;;;;19.62;51.82;99699.69;;;;-54
2021/05/22 06:25:38;;;;;;;0.59;0.59;;;;;;;19.62;51.87;99698.06;;;;-54
2021/05/22 06:28:38;;;;;;;0.70;0.70;;;;;;;19.63;51.82;99696.10;;;;-54
2021/05/22 06:31:38;;;;;;;0.72;0.69;;;;;;;19.63;51.75;99695.53;;;;-54
2021/05/22 06:34:38;;;;;;;1.00;0.97;;;;;;;19.63;51.82;99700.26;;;;-54
2021/05/22 06:37:38;;;;;;;0.69;0.69;;;;;;;19.64;51.74;99697.89;;;;-54
2021/05/22 06:40:38;;;;;;;0.76;0.76;;;;;;;19.64;51.72;99693.58;;;;-54
2021/05/22 06:43:38;;;;;;;0.74;0.74;;;;;;;19.64;51.78;99690.33;;;;-54
2021/05/22 06:46:47;;;;;;;0.84;0.83;;;;;;;19.64;51.65;99691.88;;;;-54
2021/05/22 06:49:38;;;;;;;0.65;0.65;;;;;;;19.64;51.73;99692.92;;;;-54
2021/05/22 06:52:38;;;;;;;0.71;0.71;;;;;;;19.64;51.66;99693.67;;;;-54
2021/05/22 06:55:38;;;;;;;0.81;0.81;;;;;;;19.64;51.71;99697.00;;;;-54
2021/05/22 06:58:38;;;;;;;0.84;0.84;;;;;;;19.63;51.70;99695.55;;;;-54
2021/05/22 07:01:38;;;;;;;0.87;0.87;;;;;;;19.63;51.66;99690.16;;;;-54
2021/05/22 07:04:38;;;;;;;0.73;0.73;;;;;;;19.63;51.65;99695.69;;;;-55
2021/05/22 07:07:39;;;;;;;0.79;0.79;;;;;;;19.62;51.63;99695.05;;;;-54
2021/05/22 07:10:38;;;;;;;0.81;0.81;;;;;;;19.62;51.65;99691.80;;;;-54
2021/05/22 07:13:38;;;;;;;0.75;0.75;;;;;;;19.62;51.68;99691.80;;;;-54
2021/05/22 07:16:38;;;;;;;0.80;0.80;;;;;;;19.62;51.63;99690.91;;;;-54
2021/05/22 07:19:38;;;;;;;0.76;0.76;;;;;;;19.62;51.59;99690.59;;;;-54
2021/05/22 07:22:38;;;;;;;0.79;0.79;;;;;;;19.61;51.68;99692.80;;;;-55
2021/05/22 07:25:39;;;;;;;0.79;0.79;;;;;;;19.61;51.59;99691.74;;;;-54
2021/05/22 07:28:38;;;;;;;0.83;0.83;;;;;;;19.61;51.56;99699.22;;;;-54
2021/05/22 07:31:40;;;;;;;0.91;0.91;;;;;;;19.61;51.63;99697.48;;;;-54
2021/05/22 07:34:38;;;;;;;1.67;0.82;;;;;;;19.61;51.92;99698.81;;;;-58
2021/05/22 07:37:38;;;;;;;0.97;0.88;;;;;;;19.63;52.10;99697.26;;;;-51
2021/05/22 07:40:38;;;;;;;2.97;0.87;;;;;;;19.64;52.03;99697.16;;;;-51
2021/05/22 07:43:38;;;;;;;1.55;0.85;;;;;;;19.65;52.00;99702.91;;;;-50
2021/05/22 07:46:38;;;;;;;1.07;0.90;;;;;;;19.64;51.87;99701.39;;;;-51
2021/05/22 07:49:38;;;;;;;0.95;0.80;;;;;;;19.64;51.95;99702.92;;;;-51
2021/05/22 07:52:40;;;;;;;1.09;0.87;;;;;;;19.64;51.87;99704.06;;;;-51
2021/05/22 07:55:38;;;;;;;1.09;0.83;;;;;;;19.64;51.89;99702.60;;;;-51
2021/05/22 07:58:38;;;;;;;0.76;0.76;;;;;;;19.64;51.88;99696.59;;;;-51
2021/05/22 08:01:38;;;;;;;0.97;0.91;;;;;;;19.63;51.92;99697.17;;;;-51
2021/05/22 08:04:38;;;;;;;1.89;1.03;;;;;;;19.63;52.11;99696.83;;;;-53
2021/05/22 08:07:38;;;;;;;2.93;1.00;;;;;;;19.65;52.30;99698.77;;;;-51
2021/05/22 08:10:39;;;;;;;1.97;0.95;;;;;;;19.67;52.17;99702.73;;;;-51
2021/05/22 08:13:38;;;;;;;1.67;0.89;;;;;;;19.66;52.06;99694.95;;;;-51
2021/05/22 08:16:38;;;;;;;4.35;1.17;;;;;;;19.67;52.33;99684.69;;;;-54
2021/05/22 08:19:38;;;;;;;4.27;1.18;;;;;;;19.68;52.43;99689.09;;;;-55
2021/05/22 08:22:38;;;;;;;1.07;0.97;;;;;;;19.69;52.47;99681.34;;;;-56
2021/05/22 08:25:38;;;;;;;2.06;0.99;;;;;;;19.70;52.56;99683.88;;;;-63
2021/05/22 08:28:38;;;;;;;1.46;1.00;;;;;;;19.71;52.59;99687.13;;;;-61
2021/05/22 08:31:38;;;;;;;1.77;0.89;;;;;;;19.72;52.63;99696.40;;;;-53
2021/05/22 08:34:40;;;;;;;2.28;0.92;;;;;;;19.74;52.60;99686.47;;;;-53
2021/05/22 08:37:39;;;;;;;3.27;1.10;;;;;;;19.76;52.72;99686.95;;;;-54
2021/05/22 08:40:39;;;;;;;1.97;0.99;;;;;;;19.78;52.76;99689.78;;;;-53
2021/05/22 08:43:38;;;;;;;1.24;0.90;;;;;;;19.80;52.72;99693.84;;;;-47
2021/05/22 08:46:38;;;;;;;1.51;0.85;;;;;;;19.82;52.62;99690.81;;;;-60
2021/05/22 08:49:44;;;;;;;2.53;1.19;;;;;;;19.84;52.84;99692.34;;;;-54
2021/05/22 08:52:38;;;;;;;0.98;0.93;;;;;;;19.86;52.63;99687.19;;;;-56
2021/05/22 08:55:38;;;;;;;1.04;0.93;;;;;;;19.85;52.56;99693.30;;;;-55
2021/05/22 08:58:38;;;;;;;1.14;1.00;;;;;;;19.85;52.59;99689.88;;;;-49
2021/05/22 09:01:38;;;;;;;0.93;0.90;;;;;;;19.86;52.61;99693.78;;;;-48
2021/05/22 09:04:38;;;;;;;1.49;0.86;;;;;;;19.88;52.62;99683.77;;;;-50
2021/05/22 09:07:38;;;;;;;1.05;0.89;;;;;;;19.89;52.69;99694.66;;;;-51
2021/05/22 09:10:38;;;;;;;1.67;1.06;;;;;;;19.91;52.64;99687.25;;;;-54
2021/05/22 09:13:38;;;;;;;3.86;0.92;;;;;;;19.91;52.74;99680.97;;;;-51
2021/05/22 09:16:38;;;;;;;1.21;0.95;;;;;;;19.93;52.77;99685.44;;;;-57
2021/05/22 09:19:38;;;;;;;1.68;1.01;;;;;;;19.93;52.69;99677.46;;;;-52
2021/05/22 09:22:38;;;;;;;4.26;1.10;;;;;;;19.94;52.73;99681.42;;;;-52
2021/05/22 09:25:38;;;;;;;1.61;0.97;;;;;;;19.94;52.65;99685.35;;;;-50
2021/05/22 09:28:38;;;;;;;1.24;0.91;;;;;;;19.94;52.76;99680.86;;;;-53
2021/05/22 09:31:38;;;;;;;1.33;0.95;;;;;;;19.96;52.74;99693.61;;;;-51
2021/05/22 09:34:38;;;;;;;2.59;0.99;;;;;;;19.97;52.71;99687.04;;;;-51
2021/05/22 09:37:38;;;;;;;1.68;0.89;;;;;;;19.97;52.80;99691.42;;;;-50
2021/05/22 09:40:38;;;;;;;0.89;0.87;;;;;;;19.98;52.73;99683.09;;;;-53
2021/05/22 09:43:38;;;;;;;5.53;1.00;;;;;;;19.98;52.66;99694.25;;;;-47
2021/05/22 09:46:38;;;;;;;3.29;1.08;;;;;;;19.98;52.54;99694.92;;;;-48
2021/05/22 09:49:38;;;;;;;1.77;1.10;;;;;;;19.98;52.44;99697.19;;;;-46
2021/05/22 09:52:38;;;;;;;3.84;1.16;;;;;;;20.01;52.52;99703.68;;;;-51
2021/05/22 09:55:38;;;;;;;3.73;1.21;;;;;;;20.01;52.78;99700.34;;;;-51
2021/05/22 09:58:38;;;;;;;6.18;1.16;;;;;;;20.01;52.78;99697.89;;;;-57
2021/05/22 10:01:38;;;;;;;2.19;1.00;;;;;;;20.01;52.83;99693.34;;;;-58
2021/05/22 10:04:38;;;;;;;1.30;1.00;;;;;;;20.02;52.66;99696.91;;;;-57
2021/05/22 10:07:38;;;;;;;1.83;0.96;;;;;;;20.03;52.62;99700.48;;;;-45
2021/05/22 10:10:38;;;;;;;2.44;1.03;;;;;;;20.03;52.63;99690.06;;;;-50
2021/05/22 10:13:38;;;;;;;1.36;1.05;;;;;;;20.03;52.63;99704.80;;;;-57
2021/05/22 10:16:38;;;;;;;0.97;0.91;;;;;;;20.03;52.54;99703.66;;;;-52
2021/05/22 10:19:38;;;;;;;3.92;1.04;;;;;;;20.04;52.62;99697.70;;;;-51
2021/05/22 10:22:38;;;;;;;2.05;1.01;;;;;;;20.03;52.69;99705.68;;;;-51
2021/05/22 10:25:38;;;;;;;2.31;0.96;;;;;;;20.04;52.65;99708.77;;;;-51
2021/05/22 10:28:38;;;;;;;2.13;1.07;;;;;;;20.04;52.67;99715.34;;;;-50
2021/05/22 10:31:38;;;;;;;0.93;0.89;;;;;;;20.05;52.57;99712.59;;;;-50
2021/05/22 10:34:38;;;;;;;1.09;0.95;;;;;;;20.05;52.67;99703.81;;;;-53
2021/05/22 10:37:38;;;;;;;1.13;1.00;;;;;;;20.05;52.59;99698.11;;;;-52
2021/05/22 10:40:38;;;;;;;3.00;1.03;;;;;;;20.05;52.48;99697.14;;;;-52
2021/05/22 10:43:38;;;;;;;1.45;1.06;;;;;;;20.03;52.49;99694.95;;;;-52
2021/05/22 10:46:38;;;;;;;3.79;1.10;;;;;;;20.02;52.40;99699.09;;;;-52
2021/05/22 10:49:38;;;;;;;1.50;0.91;;;;;;;20.01;52.43;99699.84;;;;-51
2021/05/22 10:52:38;;;;;;;2.81;1.08;;;;;;;20.00;52.30;99703.10;;;;-52
2021/05/22 10:55:38;;;;;;;4.67;1.09;;;;;;;19.99;52.37;99700.75;;;;-58
2021/05/22 10:58:38;;;;;;;1.51;1.03;;;;;;;19.99;52.33;99705.72;;;;-53
2021/05/22 11:01:40;;;;;;;1.47;0.96;;;;;;;20.00;52.28;99694.31;;;;-54
2021/05/22 11:04:39;;;;;;;1.11;0.99;;;;;;;20.01;52.32;99700.18;;;;-54
2021/05/22 11:07:38;;;;;;;2.87;1.01;;;;;;;20.02;52.38;99709.52;;;;-51
2021/05/22 11:10:38;;;;;;;2.58;0.95;;;;;;;20.01;52.28;99707.98;;;;-52
2021/05/22 11:13:38;;;;;;;1.20;1.03;;;;;;;20.01;52.35;99712.30;;;;-52
2021/05/22 11:16:38;;;;;;;2.17;0.99;;;;;;;20.00;52.33;99712.86;;;;-52
2021/05/22 11:19:38;;;;;;;2.63;1.01;;;;;;;19.99;52.28;99715.97;;;;-52
2021/05/22 11:22:38;;;;;;;2.02;0.99;;;;;;;19.97;52.23;99720.94;;;;-52
2021/05/22 11:25:38;;;;;;;2.21;0.99;;;;;;;19.98;52.21;99730.12;;;;-53
2021/05/22 11:28:38;;;;;;;1.85;0.99;;;;;;;19.96;52.07;99721.77;;;;-53
2021/05/22 11:31:38;;;;;;;2.11;0.90;;;;;;;19.96;52.14;99720.94;;;;-53
2021/05/22 11:34:38;;;;;;;1.13;1.03;;;;;;;19.95;52.14;99728.03;;;;-52
2021/05/22 11:37:38;;;;;;;1.11;0.93;;;;;;;19.94;52.03;99724.88;;;;-52
2021/05/22 11:40:38;;;;;;;1.98;0.97;;;;;;;19.95;52.06;99726.58;;;;-52
2021/05/22 11:43:41;;;;;;;3.00;1.13;;;;;;;19.95;52.10;99725.19;;;;-53
2021/05/22 11:46:38;;;;;;;2.65;1.21;;;;;;;19.95;52.02;99734.78;;;;-49
2021/05/22 11:49:38;;;;;;;2.27;0.99;;;;;;;19.97;51.93;99733.55;;;;-51
2021/05/22 11:52:38;;;;;;;1.53;1.00;;;;;;;19.95;51.94;99729.98;;;;-51
2021/05/22 11:55:38;;;;;;;2.51;1.11;;;;;;;19.95;51.98;99725.02;;;;-51
2021/05/22 11:58:38;;;;;;;1.69;1.11;;;;;;;19.94;51.96;99727.05;;;;-51
2021/05/22 12:01:39;;;;;;;1.43;0.98;;;;;;;19.93;52.01;99736.09;;;;-51
2021/05/22 12:04:40;;;;;;;1.96;1.00;;;;;;;19.93;51.95;99732.83;;;;-50
2021/05/22 12:07:38;;;;;;;1.37;0.99;;;;;;;19.92;51.93;99732.53;;;;-53
2021/05/22 12:10:38;;;;;;;0.97;0.94;;;;;;;19.92;51.88;99727.06;;;;-53
2021/05/22 12:13:38;;;;;;;1.11;0.97;;;;;;;19.91;51.91;99726.67;;;;-52
2021/05/22 12:16:38;;;;;;;1.27;1.09;;;;;;;19.91;51.90;99721.06;;;;-51
2021/05/22 12:19:38;;;;;;;2.59;0.92;;;;;;;19.91;51.94;99726.52;;;;-51
2021/05/22 12:22:38;;;;;;;1.21;0.79;;;;;;;19.89;51.85;99717.16;;;;-52
2021/05/22 12:25:38;;;;;;;2.92;0.95;;;;;;;19.89;51.88;99720.41;;;;-51
2021/05/22 12:28:38;;;;;;;1.35;1.05;;;;;;;19.89;51.87;99715.96;;;;-53
2021/05/22 12:31:38;;;;;;;2.15;1.10;;;;;;;19.89;51.83;99720.75;;;;-51
2021/05/22 12:34:38;;;;;;;1.69;1.01;;;;;;;19.89;51.85;99729.95;;;;-55
2021/05/22 12:37:38;;;;;;;3.54;1.03;;;;;;;19.91;52.18;99713.98;;;;-51
2021/05/22 12:40:38;;;;;;;2.80;1.15;;;;;;;19.92;52.05;99719.41;;;;-56
2021/05/22 12:43:38;;;;;;;1.99;1.15;;;;;;;19.93;52.08;99707.56;;;;-51
2021/05/22 12:46:38;;;;;;;4.65;1.25;;;;;;;19.94;52.01;99716.32;;;;-51
2021/05/22 12:49:38;;;;;;;3.56;1.24;;;;;;;19.94;51.98;99711.59;;;;-52
2021/05/22 12:52:38;;;;;;;1.53;1.17;;;;;;;19.94;52.08;99710.89;;;;-53
2021/05/22 12:55:38;;;;;;;1.33;1.10;;;;;;;19.95;51.92;99711.04;;;;-49
2021/05/22 12:58:38;;;;;;;2.91;1.19;;;;;;;19.96;51.99;99708.41;;;;-56
2021/05/22 13:01:38;;;;;;;2.49;1.04;;;;;;;19.96;51.99;99713.05;;;;-55
2021/05/22 13:04:38;;;;;;;1.61;1.03;;;;;;;19.96;52.06;99706.80;;;;-59
2021/05/22 13:07:38;;;;;;;1.64;1.13;;;;;;;19.97;51.99;99714.20;;;;-59
2021/05/22 13:10:38;;;;;;;3.47;1.44;;;;;;;19.99;52.33;99707.41;;;;-52
2021/05/22 13:13:38;;;;;;;4.97;1.41;;;;;;;20.02;52.05;99710.39;;;;-52
2021/05/22 13:16:38;;;;;;;1.64;1.25;;;;;;;20.03;52.04;99712.36;;;;-49
2021/05/22 13:19:38;;;;;;;3.77;1.27;;;;;;;20.01;51.87;99722.62;;;;-49
2021/05/22 13:22:38;;;;;;;2.17;1.20;;;;;;;20.01;51.95;99719.37;;;;-51
2021/05/22 13:25:38;;;;;;;4.96;1.13;;;;;;;20.02;51.95;99713.91;;;;-50
2021/05/22 13:28:38;;;;;;;2.33;1.21;;;;;;;20.02;51.88;99725.30;;;;-52
2021/05/22 13:31:38;;;;;;;2.90;1.22;;;;;;;20.01;51.90;99712.86;;;;-53
2021/05/22 13:34:38;;;;;;;2.83;1.14;;;;;;;20.02;51.95;99715.20;;;;-54
2021/05/22 13:37:38;;;;;;;4.31;1.35;;;;;;;20.02;51.80;99702.51;;;;-54
2021/05/22 13:40:38;;;;;;;1.89;1.29;;;;;;;20.03;51.69;99708.55;;;;-51
2021/05/22 13:43:38;;;;;;;3.36;1.40;;;;;;;20.05;51.58;99703.33;;;;-48
2021/05/22 13:46:38;;;;;;;3.03;1.35;;;;;;;20.04;51.57;99699.16;;;;-50
2021/05/22 13:49:38;;;;;;;4.43;1.50;;;;;;;20.02;51.83;99695.52;;;;-50
2021/05/22 13:52:38;;;;;;;1.27;1.17;;;;;;;20.01;51.83;99700.00;;;;-50
2021/05/22 13:55:38;;;;;;;2.11;1.23;;;;;;;20.01;51.81;99707.10;;;;-50
2021/05/22 13:58:38;;;;;;;2.59;1.40;;;;;;;19.99;51.82;99699.61;;;;-50
2021/05/22 14:01:38;;;;;;;2.63;1.21;;;;;;;19.99;51.74;99706.92;;;;-50
2021/05/22 14:04:38;;;;;;;3.93;1.27;;;;;;;19.99;51.74;99697.99;;;;-50
2021/05/22 14:07:38;;;;;;;2.26;1.19;;;;;;;19.98;51.71;99708.64;;;;-50
2021/05/22 14:10:38;;;;;;;1.82;1.33;;;;;;;19.98;51.73;99704.24;;;;-50
2021/05/22 14:13:38;;;;;;;1.98;1.20;;;;;;;19.97;51.68;99701.91;;;;-50
2021/05/22 14:16:38;;;;;;;2.16;1.18;;;;;;;19.96;51.67;99698.81;;;;-49
2021/05/22 14:19:38;;;;;;;1.61;1.11;;;;;;;19.96;51.68;99696.37;;;;-56
2021/05/22 14:22:38;;;;;;;1.69;1.20;;;;;;;19.95;51.70;99709.09;;;;-56
2021/05/22 14:25:38;;;;;;;1.57;1.10;;;;;;;19.95;51.64;99715.58;;;;-51
2021/05/22 14:28:43;;;;;;;1.23;1.10;;;;;;;19.94;51.61;99695.25;;;;-51
2021/05/22 14:31:38;;;;;;;1.87;1.20;;;;;;;19.94;51.58;99698.19;;;;-52
2021/05/22 14:34:38;;;;;;;1.96;1.21;;;;;;;19.94;51.56;99692.48;;;;-51
2021/05/22 14:37:38;;;;;;;1.33;1.11;;;;;;;19.93;51.56;99699.49;;;;-51
2021/05/22 14:40:39;;;;;;;2.43;1.20;;;;;;;19.93;51.54;99694.05;;;;-52
2021/05/22 14:43:38;;;;;;;2.21;1.13;;;;;;;19.93;51.26;99693.23;;;;-51
2021/05/22 14:46:38;;;;;;;3.10;1.24;;;;;;;19.94;51.16;99689.31;;;;-55
2021/05/22 14:49:38;;;;;;;3.37;1.33;;;;;;;19.94;51.18;99695.00;;;;-54
2021/05/22 14:52:38;;;;;;;4.29;1.36;;;;;;;19.95;51.26;99692.90;;;;-51
2021/05/22 14:55:38;;;;;;;2.67;1.27;;;;;;;19.95;51.23;99700.87;;;;-51
2021/05/22 14:58:38;;;;;;;3.94;1.32;;;;;;;19.97;50.76;99701.10;;;;-51
2021/05/22 15:01:38;;;;;;;2.60;1.27;;;;;;;19.95;51.16;99699.73;;;;-54
2021/05/22 15:04:38;;;;;;;5.10;1.32;;;;;;;19.95;51.30;99696.31;;;;-49
2021/05/22 15:07:38;;;;;;;2.81;1.41;;;;;;;19.97;51.32;99692.89;;;;-51
2021/05/22 15:10:38;;;;;;;2.25;1.36;;;;;;;19.97;51.44;99693.62;;;;-50
2021/05/22 15:13:40;;;;;;;4.25;1.33;;;;;;;19.99;51.58;99693.60;;;;-47
2021/05/22 15:16:38;;;;;;;9.63;1.54;;;;;;;20.00;51.67;99703.09;;;;-51
2021/05/22 15:19:38;;;;;;;1.76;1.19;;;;;;;20.01;51.53;99694.00;;;;-51
2021/05/22 15:22:38;;;;;;;4.51;1.37;;;;;;;20.01;51.66;99691.55;;;;-48
2021/05/22 15:25:38;;;;;;;3.83;1.20;;;;;;;20.03;51.73;99697.00;;;;-51
2021/05/22 15:28:38;;;;;;;3.42;1.40;;;;;;;20.03;51.75;99700.40;;;;-51
2021/05/22 15:31:38;;;;;;;5.95;1.33;;;;;;;20.04;51.77;99698.67;;;;-49
2021/05/22 15:34:38;;;;;;;2.73;1.29;;;;;;;20.05;51.75;99698.12;;;;-52
2021/05/22 15:37:38;;;;;;;2.61;1.19;;;;;;;20.06;51.82;99695.49;;;;-47
2021/05/22 15:40:39;;;;;;;2.44;1.20;;;;;;;20.06;51.82;99704.03;;;;-45
2021/05/22 15:43:39;;;;;;;2.55;1.29;;;;;;;20.07;51.89;99708.19;;;;-45
2021/05/22 15:46:38;;;;;;;3.81;1.30;;;;;;;20.08;51.78;99707.34;;;;-47
2021/05/22 15:56:27;;;;;;;2.63;1.10;;;;;;;20.08;51.95;99707.83;;;;-49
2021/05/22 15:58:41;;;;;;;1.99;1.20;;;;;;;20.09;51.92;99714.03;;;;-48
2021/05/22 16:01:42;;;;;;;1.33;1.09;;;;;;;20.10;51.80;99716.28;;;;-53
2021/05/22 16:04:47;;;;;;;3.63;1.30;;;;;;;20.09;51.79;99715.88;;;;-54
2021/05/22 16:07:38;;;;;;;2.78;1.29;;;;;;;20.10;51.89;99710.34;;;;-54
2021/05/22 16:10:38;;;;;;;2.12;1.20;;;;;;;20.10;51.91;99715.80;;;;-48
2021/05/22 16:13:38;;;;;;;2.29;1.26;;;;;;;20.11;51.86;99715.95;;;;-51
2021/05/22 16:16:38;;;;;;;1.68;1.15;;;;;;;20.11;51.83;99720.83;;;;-51
2021/05/22 16:19:38;;;;;;;1.65;1.06;;;;;;;20.12;51.89;99720.32;;;;-53
2021/05/22 16:22:38;;;;;;;2.35;1.23;;;;;;;20.13;51.92;99717.08;;;;-48
2021/05/22 16:25:38;;;;;;;2.80;1.07;;;;;;;20.13;51.92;99718.78;;;;-47
2021/05/22 16:28:38;;;;;;;2.82;1.17;;;;;;;20.14;51.93;99723.88;;;;-47
2021/05/22 16:31:38;;;;;;;2.04;1.10;;;;;;;20.15;52.00;99719.59;;;;-50
2021/05/22 16:34:39;;;;;;;1.81;1.17;;;;;;;20.15;52.01;99712.27;;;;-48
2021/05/22 16:37:38;;;;;;;1.74;1.10;;;;;;;20.15;51.99;99724.36;;;;-53
2021/05/22 16:40:38;;;;;;;2.16;1.23;;;;;;;20.16;51.98;99725.83;;;;-50
2021/05/22 16:43:38;;;;;;;1.49;1.11;;;;;;;20.16;51.92;99719.73;;;;-52
2021/05/22 16:46:38;;;;;;;1.27;0.93;;;;;;;20.16;52.00;99724.12;;;;-55
2021/05/22 16:49:38;;;;;;;2.26;1.11;;;;;;;20.16;51.99;99725.34;;;;-53
2021/05/22 16:52:38;;;;;;;2.69;1.25;;;;;;;20.16;51.97;99730.95;;;;-51
2021/05/22 16:55:38;;;;;;;1.54;1.17;;;;;;;20.17;52.03;99723.06;;;;-53
2021/05/22 16:58:38;;;;;;;1.21;1.10;;;;;;;20.18;51.84;99729.97;;;;-53
2021/05/22 17:01:38;;;;;;;1.67;1.22;;;;;;;20.16;51.92;99732.00;;;;-53